»·PEaware :: N676SV KONT-KSJC

N676SV :: KONT-KSJC

FLIGHT INFORMATION

Flight Status: Arrived
Operator: Privately registered:
United States
More flights under this callsign
Pilot: Drew L. (13237)
Aircraft: CESSNA 550 CITATION 2/S2/BRAVO
(C550)
More flights by this aircraft type
Origin: KONT Ontario Intl
United States
Destination: KSJC Mineta San Jose Intl
United States
More flights between these airports :: More routes between these airports
Route: SNSHN4 COREZ MAKRS TROXX SILCN4
File this flight plan on PilotEdge
Remarks: RMK / SIMBRIEF
Altitude:
(Current/Filed)
30,000ft
Speed:
(Current/Filed)
377kts
Departed: 05-Jul-20 09:52 PM
Arrived: 05-Jul-20 10:52 PM
Distance/Time
Traveled:
290nm/1:00
Distance/Time
To Go:
Arrived

Flight Plot

Page will automatically refresh every two minutes.


Map Options




Map Legend


Flown Route
Filed Route
Departure Airport
Arrival Airport
Navaid (VOR, NDB)
Fix

Horizontal Profiles

Position Reports

Time Latitude Longitude Heading Altitude Ground
Speed
05-Jul-20 21:37 34.052451 -117.600976 234 911ft 0kts
05-Jul-20 21:38 34.052451 -117.600976 234 911ft 0kts
05-Jul-20 21:39 34.052451 -117.600976 234 911ft 0kts
05-Jul-20 21:40 34.052451 -117.600976 234 911ft 0kts
05-Jul-20 21:41 34.052451 -117.600976 234 911ft 0kts
05-Jul-20 21:42 34.052451 -117.600976 234 911ft 0kts
05-Jul-20 21:43 34.052451 -117.600976 234 911ft 0kts
05-Jul-20 21:44 34.052621 -117.601439 333 912ft 8kts
05-Jul-20 21:45 34.053848 -117.599205 90 916ft 18kts
05-Jul-20 21:46 34.053862 -117.592069 90 916ft 23kts
05-Jul-20 21:47 34.053860 -117.583822 89 916ft 22kts
05-Jul-20 21:48 34.053928 -117.582751 61 917ft 0kts
05-Jul-20 21:49 34.053928 -117.582751 61 917ft 0kts
05-Jul-20 21:50 34.054927 -117.582699 302 923ft 13kts
05-Jul-20 21:51 34.055989 -117.625993 270 3183ft 213kts
05-Jul-20 21:52 34.059313 -117.702773 281 7808ft 262kts
05-Jul-20 21:53 34.084496 -117.792430 302 7899ft 289kts
05-Jul-20 21:54 34.133927 -117.866490 305 10823ft 263kts
05-Jul-20 21:55 34.175284 -117.936426 305 13888ft 275kts
05-Jul-20 21:56 34.221966 -118.015674 305 13989ft 298kts
05-Jul-20 21:57 34.271054 -118.099201 305 14393ft 310kts
05-Jul-20 21:58 34.318991 -118.175549 306 18961ft 292kts
05-Jul-20 21:59 34.370200 -118.256350 305 22144ft 309kts
05-Jul-20 22:00 34.423159 -118.340198 304 25013ft 319kts
05-Jul-20 22:02 34.477466 -118.426431 303 27571ft 324kts
05-Jul-20 22:03 34.532466 -118.513999 302 29798ft 327kts
05-Jul-20 22:04 34.587766 -118.602261 302 31697ft 329kts
05-Jul-20 22:05 34.642679 -118.690091 302 33312ft 331kts
05-Jul-20 22:06 34.702791 -118.786415 302 30152ft 378kts
05-Jul-20 22:07 34.764459 -118.885856 306 30083ft 358kts
05-Jul-20 22:08 34.836988 -118.964473 325 30004ft 349kts
05-Jul-20 22:09 34.920467 -119.024651 326 29948ft 349kts
05-Jul-20 22:10 35.004609 -119.084974 325 29925ft 351kts
05-Jul-20 22:11 35.088990 -119.145557 325 29925ft 354kts
05-Jul-20 22:12 35.172695 -119.208706 310 29920ft 349kts
05-Jul-20 22:13 35.218689 -119.311965 297 29925ft 346kts
05-Jul-20 22:14 35.265417 -119.414645 297 29924ft 346kts
05-Jul-20 22:15 35.312393 -119.518029 297 29923ft 347kts
05-Jul-20 22:16 35.359171 -119.621270 297 29923ft 347kts
05-Jul-20 22:17 35.406054 -119.725048 296 29928ft 347kts
05-Jul-20 22:18 35.452765 -119.828764 297 29939ft 347kts
05-Jul-20 22:18 35.491653 -119.915325 296 29955ft 347kts
05-Jul-20 22:20 35.545812 -120.036316 297 29972ft 347kts
05-Jul-20 22:21 35.592304 -120.140502 296 29971ft 347kts
05-Jul-20 22:21 35.630806 -120.227048 297 29971ft 347kts
05-Jul-20 22:23 35.685363 -120.348166 301 29969ft 348kts
05-Jul-20 22:23 35.729242 -120.431620 301 29969ft 348kts
05-Jul-20 22:25 35.790977 -120.548208 301 29968ft 348kts
05-Jul-20 22:25 35.835023 -120.631600 301 29968ft 348kts
05-Jul-20 22:26 35.887629 -120.731464 300 29974ft 348kts
05-Jul-20 22:27 35.940412 -120.831970 300 29973ft 349kts
05-Jul-20 22:28 35.993004 -120.932366 300 29972ft 349kts
05-Jul-20 22:29 36.064007 -121.014220 318 29880ft 356kts
05-Jul-20 22:30 36.142919 -121.089389 319 28461ft 355kts
05-Jul-20 22:31 36.221322 -121.164147 319 27047ft 353kts
05-Jul-20 22:32 36.299033 -121.238488 319 25638ft 353kts
05-Jul-20 22:33 36.376775 -121.313109 319 24165ft 354kts
05-Jul-20 22:34 36.454698 -121.388227 320 22651ft 355kts
05-Jul-20 22:35 36.537720 -121.453017 333 18944ft 341kts
05-Jul-20 22:36 36.621749 -121.497878 342 15073ft 321kts
05-Jul-20 22:37 36.703941 -121.523648 343 11006ft 284kts
05-Jul-20 22:38 36.770954 -121.546230 341 9475ft 259kts
05-Jul-20 22:39 36.847724 -121.578481 341 8576ft 305kts
05-Jul-20 22:40 36.919327 -121.608983 341 8048ft 275kts
05-Jul-20 22:41 36.992316 -121.639942 342 7058ft 275kts
05-Jul-20 22:42 37.063798 -121.670266 339 5274ft 269kts
05-Jul-20 22:43 37.130145 -121.698562 339 5043ft 238kts
05-Jul-20 22:44 37.185747 -121.736144 320 4862ft 224kts
05-Jul-20 22:45 37.230849 -121.786439 322 3500ft 206kts
05-Jul-20 22:46 37.268309 -121.826642 320 2476ft 140kts
05-Jul-20 22:47 37.295817 -121.856701 319 1699ft 122kts
05-Jul-20 22:48 37.320476 -121.883664 320 1142ft 119kts
05-Jul-20 22:49 37.344803 -121.910397 320 437ft 99kts
05-Jul-20 22:50 37.361865 -121.928989 320 51ft 61kts
05-Jul-20 22:51 37.365887 -121.936330 229 44ft 12kts
05-Jul-20 22:52 37.363948 -121.936768 139 46ft 0kts

Navigation Log

Ident Type
Flight plan parsing failed, navigation log unavailable